Time;durP1;ratioP1;P1;durP2;ratioP2;P2;SDS_P1;SDS_P2;PMS_P1;PMS_P2;Temp;Humidity;BMP_temperature;BMP_pressure;BME280_temperature;BME280_humidity;BME280_pressure;Samples;Min_cycle;Max_cycle;Signal;HPM_P1;HPM_P2
2021/04/24 00:00:15;;;;;;;7.87;3.50;;;10.90;99.90;;;;;;4990875;28;20316;-75
2021/04/24 00:02:45;;;;;;;11.23;3.83;;;11.00;99.90;;;;;;5016862;28;20432;-74
2021/04/24 00:05:26;;;;;;;9.33;3.60;;;11.00;99.90;;;;;;4999111;28;21232;-75
2021/04/24 00:08:03;;;;;;;7.90;2.90;;;10.80;99.90;;;;;;5005719;28;20810;-74
2021/04/24 00:10:33;;;;;;;8.97;2.80;;;10.80;99.90;;;;;;5002337;28;20937;-75
2021/04/24 00:13:01;;;;;;;5.83;2.87;;;10.80;99.90;;;;;;5000781;28;20182;-75
2021/04/24 00:15:27;;;;;;;6.27;2.50;;;10.90;99.90;;;;;;5021251;28;20192;-73
2021/04/24 00:17:54;;;;;;;6.13;2.70;;;10.90;99.90;;;;;;4987829;28;20194;-74
2021/04/24 00:20:23;;;;;;;9.30;3.17;;;10.90;99.90;;;;;;4988806;28;20213;-74
2021/04/24 00:22:51;;;;;;;7.43;2.57;;;10.90;99.90;;;;;;5004720;28;20620;-74
2021/04/24 00:25:19;;;;;;;6.37;2.80;;;10.90;99.90;;;;;;5007149;28;20192;-73
2021/04/24 00:27:45;;;;;;;7.13;3.10;;;10.90;99.90;;;;;;4986230;28;20173;-74
2021/04/24 00:30:14;;;;;;;8.37;3.20;;;10.90;99.90;;;;;;5004459;28;20242;-73
2021/04/24 00:32:41;;;;;;;8.13;2.73;;;11.00;99.90;;;;;;4990199;28;20232;-74
2021/04/24 00:35:09;;;;;;;7.07;2.90;;;10.90;99.90;;;;;;4991523;28;20209;-73
2021/04/24 00:37:36;;;;;;;6.97;2.90;;;11.00;99.90;;;;;;5006079;28;20191;-71
2021/04/24 00:40:05;;;;;;;8.40;3.03;;;10.90;99.90;;;;;;5005501;28;20310;-72
2021/04/24 00:42:31;;;;;;;5.77;2.57;;;11.00;99.90;;;;;;5003681;28;20685;-73
2021/04/24 00:44:58;;;;;;;10.10;2.57;;;10.90;99.90;;;;;;5006239;28;20181;-74
2021/04/24 00:47:25;;;;;;;8.00;2.80;;;10.90;99.90;;;;;;5005732;28;20845;-74
2021/04/24 00:49:52;;;;;;;5.40;2.83;;;10.90;99.90;;;;;;5002593;28;20189;-74
2021/04/24 00:52:20;;;;;;;6.40;2.93;;;10.90;99.90;;;;;;5019654;28;20194;-74
2021/04/24 00:54:46;;;;;;;4.63;2.63;;;10.80;99.90;;;;;;5019885;28;20238;-74
2021/04/24 00:57:14;;;;;;;6.97;3.07;;;10.70;99.90;;;;;;5000079;28;20234;-74
2021/04/24 00:59:41;;;;;;;5.60;2.77;;;10.70;99.90;;;;;;5005958;28;20192;-73
2021/04/24 01:02:09;;;;;;;4.97;2.50;;;10.70;99.90;;;;;;5012087;28;20192;-73
2021/04/24 01:04:36;;;;;;;8.47;2.83;;;10.60;99.90;;;;;;5019713;28;20280;-73
2021/04/24 01:07:06;;;;;;;11.53;3.00;;;10.70;99.90;;;;;;5016339;28;20247;-73
2021/04/24 01:09:33;;;;;;;5.83;2.73;;;10.60;99.90;;;;;;5007945;28;20196;-74
2021/04/24 01:12:00;;;;;;;7.17;2.50;;;10.70;99.90;;;;;;4997468;28;20189;-74
2021/04/24 01:14:27;;;;;;;6.20;2.50;;;10.70;99.90;;;;;;5002863;28;20301;-73
2021/04/24 01:16:55;;;;;;;8.10;2.90;;;10.50;99.90;;;;;;4985213;28;20189;-75
2021/04/24 01:19:23;;;;;;;8.60;2.67;;;10.50;99.90;;;;;;5008773;28;20280;-74
2021/04/24 01:22:09;;;;;;;7.87;2.70;;;10.50;99.90;;;;;;5002984;28;20262;-73
2021/04/24 01:24:36;;;;;;;6.97;2.80;;;10.60;99.90;;;;;;5003867;28;20189;-74
2021/04/24 01:27:05;;;;;;;5.47;2.67;;;10.70;99.90;;;;;;4992564;28;20188;-74
2021/04/24 01:29:34;;;;;;;13.77;2.80;;;10.60;99.90;;;;;;5009667;28;20271;-73
2021/04/24 01:32:00;;;;;;;9.70;2.43;;;10.70;99.90;;;;;;5008847;28;20203;-74
2021/04/24 01:34:29;;;;;;;7.70;3.00;;;10.60;99.90;;;;;;5007294;28;20744;-74
2021/04/24 01:36:57;;;;;;;7.80;2.73;;;10.70;99.90;;;;;;5006833;28;20853;-74
2021/04/24 01:39:29;;;;;;;10.03;3.20;;;10.70;99.90;;;;;;5008252;28;20189;-75
2021/04/24 01:41:55;;;;;;;4.40;2.83;;;10.80;99.90;;;;;;5006609;28;20572;-72
2021/04/24 01:44:22;;;;;;;4.10;2.40;;;10.90;99.90;;;;;;5011107;28;20618;-74
2021/04/24 01:46:49;;;;;;;6.40;2.40;;;10.80;99.90;;;;;;5012558;28;20226;-74
2021/04/24 01:49:16;;;;;;;5.23;2.40;;;10.70;99.90;;;;;;5005872;28;20638;-74
2021/04/24 01:51:43;;;;;;;4.50;2.40;;;10.70;99.90;;;;;;4997431;28;20193;-74
2021/04/24 01:54:10;;;;;;;5.33;2.20;;;10.50;99.90;;;;;;5009447;28;20189;-74
2021/04/24 01:57:00;;;;;;;3.77;2.00;;;10.50;99.90;;;;;;4988437;28;20189;-74
2021/04/24 01:59:32;;;;;;;6.93;2.40;;;10.70;99.90;;;;;;5003421;28;20193;-75
2021/04/24 02:01:59;;;;;;;5.60;2.47;;;10.80;99.90;;;;;;5006013;28;20656;-74
2021/04/24 02:04:28;;;;;;;6.87;2.30;;;10.70;99.90;;;;;;5006880;28;20247;-75
2021/04/24 02:06:55;;;;;;;5.10;2.50;;;10.60;99.90;;;;;;5004711;28;20192;-74
2021/04/24 02:09:23;;;;;;;4.87;2.40;;;10.60;99.90;;;;;;4987118;28;20273;-75
2021/04/24 02:12:10;;;;;;;4.87;2.23;;;10.40;99.90;;;;;;5004732;28;20185;-74
2021/04/24 02:14:42;;;;;;;5.47;2.40;;;10.40;99.90;;;;;;5005521;28;20197;-74
2021/04/24 02:17:20;;;;;;;4.53;2.23;;;10.40;99.90;;;;;;5016632;28;20811;-74
2021/04/24 02:19:49;;;;;;;3.90;2.13;;;10.40;99.90;;;;;;4981985;28;20188;-73
2021/04/24 02:22:15;;;;;;;4.63;2.20;;;10.40;99.90;;;;;;5007219;28;20189;-73
2021/04/24 02:24:57;;;;;;;9.20;2.40;;;10.40;99.90;;;;;;5007549;28;20658;-74
2021/04/24 02:27:27;;;;;;;4.13;2.20;;;10.50;99.90;;;;;;5020694;28;20189;-74
2021/04/24 02:29:55;;;;;;;2.97;2.10;;;10.60;99.90;;;;;;5004098;28;20185;-74
2021/04/24 02:32:29;;;;;;;7.93;2.40;;;10.50;99.90;;;;;;5004555;28;20197;-74
2021/04/24 02:34:56;;;;;;;3.67;2.27;;;10.60;99.90;;;;;;5002199;28;20813;-74
2021/04/24 02:37:23;;;;;;;6.30;2.37;;;10.60;99.90;;;;;;5002972;28;20243;-74
2021/04/24 02:39:52;;;;;;;6.23;2.20;;;10.60;99.90;;;;;;5000594;28;20189;-74
2021/04/24 02:42:23;;;;;;;3.60;2.10;;;10.70;99.90;;;;;;5004699;28;20193;-74
2021/04/24 02:44:51;;;;;;;5.27;2.30;;;10.70;99.90;;;;;;5018784;28;20703;-74
2021/04/24 02:47:19;;;;;;;5.90;2.30;;;10.70;99.90;;;;;;5015672;28;20213;-71
2021/04/24 02:49:47;;;;;;;5.03;2.20;;;10.80;99.90;;;;;;5008358;28;20196;-74
2021/04/24 02:52:13;;;;;;;4.10;2.10;;;10.80;99.90;;;;;;5007845;28;20189;-74
2021/04/24 02:54:40;;;;;;;5.50;1.90;;;10.60;99.90;;;;;;5010583;28;20680;-74
2021/04/24 02:57:07;;;;;;;3.33;1.87;;;10.60;99.90;;;;;;5012453;28;20950;-74
2021/04/24 02:59:35;;;;;;;3.07;1.90;;;10.70;99.90;;;;;;5003704;28;20207;-74
2021/04/24 03:02:02;;;;;;;4.43;1.87;;;10.80;99.90;;;;;;4988365;28;20271;-75
2021/04/24 03:04:28;;;;;;;3.20;2.07;;;10.90;99.90;;;;;;4992462;28;20185;-74
2021/04/24 03:06:55;;;;;;;5.63;2.37;;;10.80;99.90;;;;;;5007560;28;20181;-74
2021/04/24 03:09:21;;;;;;;6.50;2.30;;;10.80;99.90;;;;;;5004081;28;20200;-74
2021/04/24 03:11:48;;;;;;;3.80;1.80;;;10.80;99.90;;;;;;5004740;28;20281;-74
2021/04/24 03:14:15;;;;;;;7.50;1.97;;;10.90;99.90;;;;;;5005985;28;20195;-75
2021/04/24 03:16:41;;;;;;;6.23;2.00;;;11.00;99.90;;;;;;5023814;28;20194;-74
2021/04/24 03:19:08;;;;;;;6.00;2.03;;;11.10;99.90;;;;;;5015078;28;20185;-74
2021/04/24 03:21:35;;;;;;;5.53;2.10;;;11.00;99.90;;;;;;4986744;28;20213;-75
2021/04/24 03:24:04;;;;;;;2.97;1.53;;;11.10;99.90;;;;;;5026135;28;20189;-74
2021/04/24 03:26:31;;;;;;;4.40;1.83;;;11.10;99.90;;;;;;4988750;28;20181;-74
2021/04/24 03:28:58;;;;;;;5.30;2.10;;;11.10;99.90;;;;;;4992061;28;20184;-74
2021/04/24 03:31:24;;;;;;;6.07;1.70;;;11.10;99.90;;;;;;5007668;28;20204;-74
2021/04/24 03:33:50;;;;;;;7.73;1.63;;;11.10;99.90;;;;;;5004867;28;20204;-75
2021/04/24 03:36:17;;;;;;;6.80;2.20;;;11.20;99.90;;;;;;5009704;28;20605;-74
2021/04/24 03:38:43;;;;;;;3.53;1.70;;;11.10;99.90;;;;;;4986387;28;20189;-74
2021/04/24 03:41:10;;;;;;;3.27;1.80;;;11.10;99.90;;;;;;5004587;28;20224;-74
2021/04/24 03:43:36;;;;;;;4.33;1.70;;;11.20;99.90;;;;;;5002461;28;20188;-74
2021/04/24 03:46:04;;;;;;;7.77;2.20;;;11.20;99.90;;;;;;5003321;28;20258;-76
2021/04/24 03:48:33;;;;;;;7.93;1.60;;;11.30;99.90;;;;;;5022967;28;20708;-74
2021/04/24 03:51:01;;;;;;;8.47;2.03;;;11.20;99.90;;;;;;5004507;28;20188;-75
2021/04/24 03:53:27;;;;;;;5.13;1.60;;;11.30;99.90;;;;;;4989062;28;20204;-75
2021/04/24 03:55:54;;;;;;;2.70;1.60;;;11.30;99.90;;;;;;5002854;28;20200;-74
2021/04/24 03:58:21;;;;;;;4.80;2.53;;;11.40;99.90;;;;;;5004325;28;20189;-74
2021/04/24 04:00:48;;;;;;;3.20;1.90;;;11.30;99.90;;;;;;5003752;28;20209;-73
2021/04/24 04:03:14;;;;;;;5.80;1.90;;;11.30;99.90;;;;;;5005208;28;20272;-73
2021/04/24 04:05:44;;;;;;;2.60;1.53;;;11.30;99.90;;;;;;5008704;28;20189;-73
2021/04/24 04:08:14;;;;;;;4.10;2.13;;;11.30;99.90;;;;;;4986934;28;20184;-74
2021/04/24 04:10:44;;;;;;;2.90;1.83;;;11.30;99.90;;;;;;5005722;28;20231;-73
2021/04/24 04:13:13;;;;;;;3.03;1.77;;;11.40;99.90;;;;;;5011414;28;20185;-74
2021/04/24 04:15:40;;;;;;;5.33;1.80;;;11.50;99.90;;;;;;5005626;28;20216;-74
2021/04/24 04:18:12;;;;;;;3.57;1.80;;;11.50;99.90;;;;;;5003159;28;20197;-74
2021/04/24 04:20:52;;;;;;;4.03;1.87;;;11.50;99.90;;;;;;4991166;28;20223;-73
2021/04/24 04:23:19;;;;;;;8.93;2.10;;;11.50;99.90;;;;;;5010095;28;20224;-72
2021/04/24 04:25:47;;;;;;;5.43;1.87;;;11.70;99.90;;;;;;4998046;28;20212;-71
2021/04/24 04:28:14;;;;;;;5.43;1.63;;;11.90;99.90;;;;;;5004236;28;20853;-71
2021/04/24 04:30:42;;;;;;;3.37;1.97;;;12.00;99.90;;;;;;4989735;28;20570;-73
2021/04/24 04:33:09;;;;;;;3.50;2.10;;;12.10;99.90;;;;;;5020747;28;20200;-74
2021/04/24 04:35:38;;;;;;;4.27;2.00;;;12.00;99.90;;;;;;4997663;28;20320;-74
2021/04/24 04:38:05;;;;;;;6.37;1.90;;;12.00;99.90;;;;;;5004685;28;20189;-74
2021/04/24 04:40:32;;;;;;;4.80;1.83;;;12.10;99.90;;;;;;5004230;28;20252;-73
2021/04/24 04:42:59;;;;;;;5.67;2.13;;;12.40;99.90;;;;;;5005897;28;20186;-74
2021/04/24 04:45:26;;;;;;;6.03;2.10;;;12.50;99.90;;;;;;5014611;28;21872;-74
2021/04/24 04:47:53;;;;;;;7.07;2.07;;;12.60;99.90;;;;;;5024009;28;20184;-73
2021/04/24 04:50:24;;;;;;;5.87;2.23;;;12.70;99.90;;;;;;5001566;28;20199;-73
2021/04/24 04:52:50;;;;;;;12.20;2.53;;;12.80;99.90;;;;;;4990396;28;20193;-73
2021/04/24 04:55:19;;;;;;;6.40;2.43;;;13.10;99.90;;;;;;5019588;28;20186;-71
2021/04/24 04:57:47;;;;;;;5.10;2.57;;;13.20;99.90;;;;;;5015106;28;20189;-72
2021/04/24 05:00:17;;;;;;;8.27;3.03;;;13.30;99.90;;;;;;5002464;28;20212;-73
2021/04/24 05:02:45;;;;;;;7.63;2.90;;;13.40;99.90;;;;;;4986003;28;20181;-71
2021/04/24 05:05:14;;;;;;;4.83;2.87;;;13.30;99.90;;;;;;5017551;28;20716;-71
2021/04/24 05:07:48;;;;;;;4.97;3.37;;;13.40;99.90;;;;;;4992885;28;20281;-71
2021/04/24 05:10:21;;;;;;;5.07;2.80;;;13.50;99.90;;;;;;5005181;28;20200;-71
2021/04/24 05:12:50;;;;;;;7.27;2.73;;;13.60;99.90;;;;;;5006630;28;20243;-71
2021/04/24 05:15:38;;;;;;;6.83;2.80;;;13.70;99.90;;;;;;5001930;28;20243;-72
2021/04/24 05:18:04;;;;;;;6.40;2.77;;;13.90;99.90;;;;;;5002989;28;20280;-71
2021/04/24 05:20:31;;;;;;;4.80;2.47;;;13.90;99.90;;;;;;5005923;28;20244;-75
2021/04/24 05:22:57;;;;;;;5.17;2.27;;;14.00;99.90;;;;;;5009007;28;20207;-75
2021/04/24 05:25:24;;;;;;;9.73;2.53;;;14.10;99.90;;;;;;5007976;28;20187;-74
2021/04/24 05:27:50;;;;;;;4.03;2.07;;;14.10;99.90;;;;;;5004757;28;20339;-74
2021/04/24 05:30:18;;;;;;;4.77;2.27;;;14.20;99.90;;;;;;5021787;28;20669;-74
2021/04/24 05:32:46;;;;;;;4.93;2.47;;;14.20;99.90;;;;;;5022665;28;20189;-74
2021/04/24 05:35:15;;;;;;;5.17;1.90;;;14.20;99.90;;;;;;5008741;28;20282;-74
2021/04/24 05:37:42;;;;;;;3.90;1.80;;;14.20;99.90;;;;;;4988997;28;20203;-74
2021/04/24 05:40:09;;;;;;;7.97;2.30;;;14.30;99.90;;;;;;5003304;28;20217;-75
2021/04/24 05:42:36;;;;;;;3.97;2.10;;;14.40;99.90;;;;;;5006950;28;20671;-74
2021/04/24 05:45:10;;;;;;;6.03;2.30;;;14.50;99.90;;;;;;5004994;28;20177;-74
2021/04/24 05:47:42;;;;;;;4.63;2.00;;;14.60;99.90;;;;;;5003909;28;20195;-74
2021/04/24 05:50:10;;;;;;;7.73;2.30;;;14.60;99.90;;;;;;5003963;28;22015;-75
2021/04/24 05:52:38;;;;;;;5.20;2.13;;;14.70;99.90;;;;;;5024156;28;20275;-75
2021/04/24 05:55:06;;;;;;;4.33;2.47;;;14.80;99.90;;;;;;5011026;28;20196;-74
2021/04/24 05:57:35;;;;;;;5.83;2.00;;;14.90;99.90;;;;;;5008612;28;20545;-74
2021/04/24 06:00:03;;;;;;;3.83;1.70;;;15.00;99.90;;;;;;4999820;28;20197;-74
2021/04/24 06:02:29;;;;;;;7.00;1.80;;;15.10;99.90;;;;;;5003649;28;20189;-74
2021/04/24 06:04:56;;;;;;;4.13;1.80;;;15.10;99.90;;;;;;5006282;28;20185;-74
2021/04/24 06:07:22;;;;;;;3.93;1.83;;;15.20;99.90;;;;;;5004658;28;20538;-74
2021/04/24 06:09:49;;;;;;;6.53;1.87;;;15.20;99.90;;;;;;4988320;28;20188;-74
2021/04/24 06:12:34;;;;;;;9.30;2.10;;;15.30;99.90;;;;;;5003719;28;20196;-75
2021/04/24 06:15:01;;;;;;;3.23;1.77;;;15.50;99.90;;;;;;5004815;28;20251;-74
2021/04/24 06:17:28;;;;;;;5.47;1.83;;;15.60;99.90;;;;;;5006385;28;20196;-74
2021/04/24 06:19:54;;;;;;;4.40;1.90;;;15.80;99.90;;;;;;5003400;28;20654;-74
2021/04/24 06:23:07;;;;;;;10.53;2.10;;;16.00;99.90;;;;;;5007401;28;20593;-72
2021/04/24 06:25:33;;;;;;;4.93;2.10;;;16.00;99.90;;;;;;5023079;28;20191;-73
2021/04/24 06:28:01;;;;;;;14.80;2.10;;;16.00;99.90;;;;;;5015597;28;20205;-74
2021/04/24 06:30:28;;;;;;;4.37;2.03;;;16.30;99.90;;;;;;5000760;28;20357;-74
2021/04/24 06:32:57;;;;;;;4.70;2.20;;;16.30;99.90;;;;;;5005358;28;20231;-74
2021/04/24 06:35:27;;;;;;;4.83;2.20;;;16.30;99.90;;;;;;5007588;28;20266;-72
2021/04/24 06:37:58;;;;;;;6.63;2.13;;;16.40;99.90;;;;;;4986163;28;20192;-72
2021/04/24 06:40:27;;;;;;;3.83;1.90;;;16.50;99.90;;;;;;4998259;28;20205;-73
2021/04/24 06:42:54;;;;;;;5.20;1.90;;;16.50;99.90;;;;;;5002848;28;20199;-72
2021/04/24 06:45:21;;;;;;;6.37;2.10;;;16.80;99.90;;;;;;4999900;28;20213;-73
2021/04/24 06:47:50;;;;;;;4.57;2.10;;;16.90;99.90;;;;;;5002011;28;20192;-72
2021/04/24 06:50:18;;;;;;;7.30;2.00;;;17.20;99.90;;;;;;5002207;28;20189;-72
2021/04/24 06:52:45;;;;;;;4.93;1.87;;;17.40;99.90;;;;;;5015321;28;20193;-74
2021/04/24 06:55:17;;;;;;;7.10;1.97;;;17.50;99.90;;;;;;5003808;28;20196;-72
2021/04/24 06:57:48;;;;;;;5.53;2.20;;;17.60;99.90;;;;;;4986963;28;20527;-73
2021/04/24 07:00:17;;;;;;;6.23;2.00;;;17.60;99.90;;;;;;5003386;28;20530;-74
2021/04/24 07:02:44;;;;;;;5.33;1.83;;;17.60;99.90;;;;;;5005123;28;20213;-71
2021/04/24 07:05:13;;;;;;;8.07;2.47;;;17.70;99.90;;;;;;4989918;28;20193;-74
2021/04/24 07:07:44;;;;;;;8.37;2.13;;;18.00;99.90;;;;;;4988317;28;20232;-72
2021/04/24 07:10:12;;;;;;;12.47;2.23;;;18.10;99.90;;;;;;5001814;28;20488;-72
2021/04/24 07:12:40;;;;;;;3.27;1.93;;;18.10;99.90;;;;;;5003395;28;20201;-74
2021/04/24 07:15:09;;;;;;;7.93;2.27;;;18.10;99.90;;;;;;4989483;28;20191;-75
2021/04/24 07:17:41;;;;;;;4.93;1.80;;;18.30;99.90;;;;;;5004702;28;20220;-71
2021/04/24 07:20:09;;;;;;;8.03;2.17;;;18.60;99.90;;;;;;5014119;28;20204;-74
2021/04/24 07:22:37;;;;;;;10.43;2.30;;;18.60;99.90;;;;;;5017838;28;20284;-74
2021/04/24 07:25:06;;;;;;;9.00;2.03;;;18.60;99.90;;;;;;5003695;28;20192;-73
2021/04/24 07:27:34;;;;;;;10.77;1.77;;;18.70;99.90;;;;;;5002085;28;20295;-72
2021/04/24 07:30:02;;;;;;;4.70;2.23;;;19.00;99.90;;;;;;5008063;28;20189;-71
2021/04/24 07:32:28;;;;;;;10.27;2.40;;;19.30;99.90;;;;;;4988209;28;20217;-72
2021/04/24 07:34:55;;;;;;;8.50;2.33;;;19.20;99.90;;;;;;5005129;28;20268;-74
2021/04/24 07:37:22;;;;;;;13.83;2.80;;;19.40;99.90;;;;;;5004621;28;20189;-73
2021/04/24 07:39:48;;;;;;;3.70;1.77;;;19.70;99.90;;;;;;4997382;28;20332;-74
2021/04/24 07:42:18;;;;;;;5.00;1.90;;;19.60;99.90;;;;;;4986713;28;20200;-75
2021/04/24 07:44:44;;;;;;;13.53;2.10;;;19.70;99.90;;;;;;5013380;28;20185;-74
2021/04/24 07:47:11;;;;;;;10.50;2.23;;;19.80;99.90;;;;;;5005693;28;20196;-74
2021/04/24 07:49:39;;;;;;;7.27;2.20;;;20.10;99.90;;;;;;4989332;28;20185;-75
2021/04/24 07:52:10;;;;;;;6.30;2.40;;;20.20;99.90;;;;;;4997412;28;20193;-73
2021/04/24 07:54:44;;;;;;;4.30;2.03;;;20.50;99.90;;;;;;5004635;28;20268;-74
2021/04/24 07:57:15;;;;;;;3.50;2.00;;;20.40;99.90;;;;;;5007259;28;20542;-74
2021/04/24 07:59:43;;;;;;;5.83;2.50;;;20.60;99.90;;;;;;5000398;28;20213;-74
2021/04/24 08:02:15;;;;;;;3.23;2.07;;;20.80;99.90;;;;;;5005170;28;20600;-73
2021/04/24 08:04:42;;;;;;;5.80;2.30;;;20.90;99.90;;;;;;4989753;28;20213;-73
2021/04/24 08:07:10;;;;;;;9.43;2.43;;;21.00;99.90;;;;;;4989927;28;20669;-74
2021/04/24 08:09:37;;;;;;;7.13;2.27;;;21.00;99.90;;;;;;5006362;28;20844;-74
2021/04/24 08:12:05;;;;;;;7.83;2.00;;;21.10;99.90;;;;;;5004572;28;20601;-73
2021/04/24 08:14:33;;;;;;;8.73;2.80;;;21.30;99.90;;;;;;5001225;28;20180;-74
2021/04/24 08:17:02;;;;;;;10.83;2.67;;;21.40;99.90;;;;;;4988448;28;20193;-73
2021/04/24 08:19:29;;;;;;;5.20;2.00;;;21.50;99.90;;;;;;5001389;28;20258;-74
2021/04/24 08:21:56;;;;;;;5.80;1.87;;;21.60;99.90;;;;;;4993433;28;20645;-74
2021/04/24 08:24:23;;;;;;;8.60;2.30;;;21.70;99.90;;;;;;5005520;28;20188;-73
2021/04/24 08:26:50;;;;;;;4.73;2.10;;;21.90;99.90;;;;;;5002067;28;20501;-74
2021/04/24 08:29:16;;;;;;;6.40;2.00;;;22.10;99.90;;;;;;5000381;28;20717;-74
2021/04/24 08:31:44;;;;;;;3.33;1.93;;;22.30;99.90;;;;;;5005155;28;20200;-74
2021/04/24 08:34:12;;;;;;;8.73;2.30;;;22.30;99.90;;;;;;5018465;28;20240;-75
2021/04/24 08:36:40;;;;;;;7.43;2.30;;;22.40;99.90;;;;;;5001418;28;20284;-73
2021/04/24 08:39:08;;;;;;;8.40;2.50;;;22.30;99.90;;;;;;5002791;28;20192;-74
2021/04/24 08:41:36;;;;;;;7.07;1.90;;;22.30;99.90;;;;;;5010679;28;20212;-73
2021/04/24 08:44:03;;;;;;;14.50;2.80;;;22.60;99.90;;;;;;5008253;28;20196;-74
2021/04/24 08:46:30;;;;;;;9.37;2.30;;;22.60;99.90;;;;;;5003240;28;20192;-73
2021/04/24 08:48:59;;;;;;;11.57;2.10;;;22.70;99.90;;;;;;5003041;28;20185;-73
2021/04/24 08:51:29;;;;;;;5.40;1.70;;;22.70;99.90;;;;;;5015282;28;20181;-73
2021/04/24 08:53:59;;;;;;;6.40;2.03;;;22.80;99.90;;;;;;5001325;28;20291;-74
2021/04/24 08:56:34;;;;;;;8.63;2.10;;;22.80;99.90;;;;;;5006542;28;20279;-74
2021/04/24 08:59:01;;;;;;;95.43;6.93;;;22.80;99.90;;;;;;4986235;28;20195;-73
2021/04/24 09:01:27;;;;;;;5.77;2.10;;;23.00;99.90;;;;;;5003532;28;20217;-73
2021/04/24 09:03:54;;;;;;;9.03;1.77;;;23.10;99.90;;;;;;5011822;28;20218;-73
2021/04/24 09:06:22;;;;;;;8.73;2.00;;;23.10;99.90;;;;;;4988205;28;20609;-71
2021/04/24 09:09:07;;;;;;;6.45;2.08;;;23.10;99.90;;;;;;4998040;28;20199;-72
2021/04/24 09:11:45;;;;;;;8.27;2.20;;;23.10;99.90;;;;;;5002249;28;20271;-74
2021/04/24 09:14:20;;;;;;;7.07;2.10;;;23.30;99.90;;;;;;5005823;28;20568;-74
2021/04/24 09:17:42;;;;;;;9.20;2.10;;;23.40;99.90;;;;;;5002271;28;20275;-75
2021/04/24 09:20:09;;;;;;;7.73;1.93;;;23.60;99.90;;;;;;4993061;28;20201;-75
2021/04/24 09:22:36;;;;;;;4.60;1.80;;;23.80;99.90;;;;;;4987174;28;20273;-75
2021/04/24 09:25:05;;;;;;;8.02;2.00;;;24.00;99.90;;;;;;4986789;28;20243;-73
2021/04/24 09:27:48;;;;;;;4.22;1.95;;;24.00;99.90;;;;;;5000531;28;20193;-73
2021/04/24 09:30:27;;;;;;;4.60;1.77;;;23.90;99.90;;;;;;5019076;28;20193;-72
2021/04/24 09:33:00;;;;;;;4.85;2.35;;;24.10;99.90;;;;;;5005336;28;20665;-73
2021/04/24 09:35:26;;;;;;;4.07;1.85;;;24.30;99.90;;;;;;5013839;28;20351;-73
2021/04/24 09:38:01;;;;;;;6.80;2.15;;;24.40;99.90;;;;;;5017424;28;20204;-72
2021/04/24 09:40:28;;;;;;;12.32;4.38;;;24.40;99.90;;;;;;5004150;28;20217;-72
2021/04/24 09:43:08;;;;;;;10.27;3.50;;;24.60;99.90;;;;;;5002306;28;20193;-71
2021/04/24 09:45:41;;;;;;;30.77;6.78;;;24.80;99.90;;;;;;5013731;28;20212;-72
2021/04/24 09:48:26;;;;;;;13.35;3.58;;;24.90;99.90;;;;;;5003459;28;20192;-73
2021/04/24 09:50:53;;;;;;;26.35;5.40;;;25.00;99.90;;;;;;5004380;28;20207;-73
2021/04/24 09:53:26;;;;;;;5.82;2.25;;;25.10;99.90;;;;;;5006150;28;20279;-73
2021/04/24 09:55:55;;;;;;;5.60;2.05;;;25.10;99.90;;;;;;5025060;28;20207;-71
2021/04/24 09:58:38;;;;;;;6.63;1.80;;;25.30;99.90;;;;;;5003429;28;20212;-74
2021/04/24 10:01:25;;;;;;;3.22;1.83;;;25.50;99.90;;;;;;5005320;28;20264;-74
2021/04/24 10:03:54;;;;;;;11.82;2.08;;;25.70;99.90;;;;;;4985722;28;20181;-72
2021/04/24 10:06:42;;;;;;;7.35;2.15;;;25.80;99.90;;;;;;4995266;28;20700;-75
2021/04/24 10:09:18;;;;;;;2.80;1.80;;;26.00;99.90;;;;;;4987296;28;20200;-72
2021/04/24 10:12:11;;;;;;;4.93;2.05;;;25.90;99.90;;;;;;5009655;28;20192;-72
2021/04/24 10:14:44;;;;;;;13.43;2.65;;;26.30;99.90;;;;;;5007179;28;20189;-72
2021/04/24 10:17:17;;;;;;;4.90;1.88;;;26.60;99.90;;;;;;5009505;28;20185;-72
2021/04/24 10:19:45;;;;;;;9.07;2.33;;;26.80;99.90;;;;;;5017017;28;20181;-72
2021/04/24 10:22:16;;;;;;;7.20;2.20;;;26.90;99.90;;;;;;5021072;28;20213;-72
2021/04/24 10:24:44;;;;;;;5.80;2.05;;;27.10;99.90;;;;;;5020171;28;20288;-72
2021/04/24 10:27:17;;;;;;;6.10;2.08;;;27.20;99.90;;;;;;4989261;28;20185;-72
2021/04/24 10:29:46;;;;;;;6.32;2.00;;;27.50;99.90;;;;;;5007152;28;20703;-72
2021/04/24 10:32:15;;;;;;;5.40;2.25;;;27.50;99.90;;;;;;5007934;28;20660;-72
2021/04/24 10:34:43;;;;;;;6.07;2.20;;;27.50;99.90;;;;;;5004055;28;20212;-72
2021/04/24 10:37:10;;;;;;;12.88;2.42;;;27.60;99.90;;;;;;5008360;28;20201;-72
2021/04/24 10:39:40;;;;;;;6.22;2.10;;;27.60;99.90;;;;;;4988013;28;20730;-72
2021/04/24 10:42:21;;;;;;;6.00;2.03;;;27.50;99.90;;;;;;5005743;28;20259;-72
2021/04/24 10:45:00;;;;;;;10.70;2.70;;;27.30;99.90;;;;;;5002602;28;20181;-72
2021/04/24 10:47:40;;;;;;;5.68;2.00;;;27.20;99.90;;;;;;5019041;28;20181;-72
2021/04/24 10:50:24;;;;;;;9.23;1.80;;;27.20;99.90;;;;;;5008662;28;20190;-72
2021/04/24 10:53:11;;;;;;;6.22;1.98;;;27.00;99.90;;;;;;5007911;28;20215;-72
2021/04/24 10:55:44;;;;;;;6.85;2.50;;;27.00;99.90;;;;;;4990284;28;20732;-72
2021/04/24 10:58:22;;;;;;;5.70;2.40;;;26.70;99.90;;;;;;5002143;28;20276;-72
2021/04/24 11:01:00;;;;;;;4.18;1.90;;;26.90;99.90;;;;;;5018343;28;20219;-72
2021/04/24 11:03:50;;;;;;;4.72;1.80;;;27.00;99.90;;;;;;5007605;28;20211;-72
2021/04/24 11:06:23;;;;;;;10.52;2.17;;;26.90;99.90;;;;;;5010915;28;20185;-72
2021/04/24 11:09:17;;;;;;;5.40;2.10;;;26.70;99.90;;;;;;4989077;28;20834;-72
2021/04/24 11:11:49;;;;;;;5.78;2.00;;;26.70;99.90;;;;;;4986519;28;20597;-73
2021/04/24 11:14:19;;;;;;;5.30;2.03;;;26.70;99.90;;;;;;5004398;28;20220;-71
2021/04/24 11:16:47;;;;;;;4.95;1.92;;;26.70;99.90;;;;;;5008985;28;20196;-72
2021/04/24 11:19:44;;;;;;;6.70;1.90;;;26.80;99.90;;;;;;5011310;28;20197;-72
2021/04/24 11:22:34;;;;;;;4.47;1.90;;;26.80;99.90;;;;;;5012120;28;20246;-72
2021/04/24 11:25:20;;;;;;;4.18;2.15;;;26.70;99.90;;;;;;5006672;28;20195;-72
2021/04/24 11:28:10;;;;;;;6.28;1.92;;;26.70;99.90;;;;;;5004212;28;20191;-72
2021/04/24 11:30:59;;;;;;;7.07;4.18;;;26.40;99.90;;;;;;5004758;28;20192;-72
2021/04/24 11:33:45;;;;;;;6.85;1.92;;;26.40;99.90;;;;;;5000978;28;20185;-72
2021/04/24 11:38:56;;;;;;;6.40;1.88;;;26.40;99.90;;;;;;5001995;28;20207;-72
2021/04/24 11:41:42;;;;;;;10.45;2.83;;;26.50;99.90;;;;;;5012354;28;20296;-72
2021/04/24 11:44:18;;;;;;;8.27;1.73;;;26.50;99.90;;;;;;5004278;28;20199;-71
2021/04/24 11:46:51;;;;;;;5.22;1.90;;;26.50;99.90;;;;;;5004145;28;20185;-72
2021/04/24 11:49:27;;;;;;;5.15;1.83;;;26.50;99.90;;;;;;5020411;28;20198;-72
2021/04/24 11:51:57;;;;;;;8.70;1.98;;;26.40;99.90;;;;;;4987977;28;20215;-72
2021/04/24 11:55:18;;;;;;;4.63;1.95;;;26.60;99.90;;;;;;5002957;28;20192;-72
2021/04/24 11:57:44;;;;;;;8.80;1.80;;;26.60;99.90;;;;;;4999967;28;20191;-72
2021/04/24 12:00:11;;;;;;;7.35;1.85;;;26.70;99.90;;;;;;5002586;28;20189;-73
2021/04/24 12:02:46;;;;;;;4.15;1.55;;;26.80;99.90;;;;;;5003959;28;20534;-72
2021/04/24 12:05:14;;;;;;;5.43;2.10;;;26.70;99.90;;;;;;5001205;28;20235;-72
2021/04/24 12:07:47;;;;;;;6.35;1.70;;;26.70;99.90;;;;;;4987993;28;21372;-72
2021/04/24 12:10:16;;;;;;;6.78;1.77;;;26.80;99.90;;;;;;5002980;28;20665;-72
2021/04/24 12:12:49;;;;;;;8.65;1.80;;;26.70;99.90;;;;;;5002878;28;20197;-72
2021/04/24 12:15:26;;;;;;;8.88;1.80;;;26.70;99.90;;;;;;5002651;28;20191;-72
2021/04/24 12:18:07;;;;;;;5.15;2.00;;;26.60;99.90;;;;;;5003240;28;20279;-72
2021/04/24 12:20:43;;;;;;;3.83;1.85;;;26.50;99.90;;;;;;4997781;28;20305;-72
2021/04/24 12:23:22;;;;;;;4.63;1.80;;;26.70;99.90;;;;;;4986671;28;20212;-72
2021/04/24 12:25:50;;;;;;;4.28;1.70;;;26.90;99.90;;;;;;5002155;28;20200;-72
2021/04/24 12:28:22;;;;;;;4.53;2.00;;;27.00;99.60;;;;;;4986353;28;20652;-72
2021/04/24 12:30:50;;;;;;;14.27;1.90;;;27.30;99.90;;;;;;4999900;28;20256;-73
2021/04/24 12:33:20;;;;;;;11.25;1.85;;;27.20;99.90;;;;;;5017055;28;20197;-72
2021/04/24 12:35:57;;;;;;;5.53;3.08;;;27.30;99.90;;;;;;5002062;28;20761;-72
2021/04/24 12:39:00;;;;;;;7.95;2.92;;;27.20;99.90;;;;;;5004239;28;20188;-72
2021/04/24 12:41:27;;;;;;;6.90;1.90;;;27.20;99.90;;;;;;5016188;28;20295;-72
2021/04/24 12:43:53;;;;;;;8.05;2.13;;;27.00;99.90;;;;;;4999782;28;20935;-72
2021/04/24 12:46:19;;;;;;;5.00;1.90;;;26.80;99.90;;;;;;5002370;28;21519;-72
2021/04/24 12:48:48;;;;;;;6.55;1.92;;;26.60;99.90;;;;;;5010947;28;20224;-72
2021/04/24 12:51:22;;;;;;;2.40;1.60;;;26.10;99.90;;;;;;5001604;28;20199;-72
2021/04/24 12:53:52;;;;;;;4.80;2.03;;;26.30;99.90;;;;;;5004271;28;20662;-72
2021/04/24 12:56:25;;;;;;;5.63;2.03;;;25.60;99.90;;;;;;4993166;28;20288;-72
2021/04/24 12:58:56;;;;;;;4.88;1.80;;;25.90;99.90;;;;;;5019128;28;20189;-72
2021/04/24 13:01:25;;;;;;;3.00;1.65;;;26.10;99.90;;;;;;5002812;28;20279;-72
2021/04/24 13:04:00;;;;;;;10.18;2.15;;;26.10;99.90;;;;;;5009746;28;20189;-72
2021/04/24 13:06:30;;;;;;;6.47;1.95;;;25.90;99.90;;;;;;5000232;28;20194;-72